Time;durP1;ratioP1;P1;durP2;ratioP2;P2;SDS_P1;SDS_P2;PMS_P1;PMS_P2;Temp;Humidity;BMP_temperature;BMP_pressure;BME280_temperature;BME280_humidity;BME280_pressure;Samples;Min_cycle;Max_cycle;Signal;HPM_P1;HPM_P2
2022/06/12 00:00:14;;;;;;;1.17;1.10;;;;;;;13.34;69.92;102218.72;6215454;23;20005;-81
2022/06/12 00:02:43;;;;;;;1.58;1.20;;;;;;;13.30;69.95;102222.22;6214064;23;20019;-80
2022/06/12 00:05:09;;;;;;;1.80;1.40;;;;;;;13.26;70.10;102213.53;6215136;23;20012;-81
2022/06/12 00:07:35;;;;;;;1.05;0.95;;;;;;;13.21;69.97;102210.09;6215224;23;20005;-81
2022/06/12 00:10:00;;;;;;;1.27;1.17;;;;;;;13.16;70.38;102209.25;6214570;23;20051;-81
2022/06/12 00:12:26;;;;;;;1.10;1.00;;;;;;;13.16;70.53;102211.84;6215376;23;20004;-81
2022/06/12 00:14:52;;;;;;;1.00;1.00;;;;;;;13.15;70.37;102209.25;6215197;23;20465;-81
2022/06/12 00:17:18;;;;;;;1.60;1.50;;;;;;;13.10;70.35;102204.06;6214430;23;20001;-81
2022/06/12 00:19:44;;;;;;;2.37;1.20;;;;;;;13.08;70.51;102216.22;6214966;23;20373;-81
2022/06/12 00:22:10;;;;;;;1.20;1.10;;;;;;;13.06;70.79;102207.53;6214480;23;20008;-81
2022/06/12 00:24:37;;;;;;;1.25;1.13;;;;;;;13.03;70.60;102204.94;6214802;23;20016;-81
2022/06/12 00:27:03;;;;;;;;;;;;;;;13.03;70.70;102215.38;6215917;23;20325;-81
2022/06/12 00:29:30;;;;;;;;;;;;;;;12.99;70.98;102214.50;6214984;23;19912;-81
2022/06/12 00:32:03;;;;;;;1.25;1.15;;;;;;;12.95;71.05;102207.56;6214567;23;20679;-81
2022/06/12 00:34:41;;;;;;;1.20;1.08;;;;;;;12.88;71.15;102211.97;6215175;23;20162;-81
2022/06/12 00:37:06;;;;;;;1.55;1.20;;;;;;;12.83;70.92;102211.09;6214286;23;20008;-81
2022/06/12 00:39:32;;;;;;;1.30;1.20;;;;;;;12.79;71.33;102204.16;6215307;23;20007;-81
2022/06/12 00:41:59;;;;;;;1.83;1.13;;;;;;;12.77;71.34;102206.78;6214389;23;20430;-81
2022/06/12 00:44:30;;;;;;;1.20;1.10;;;;;;;12.75;71.21;102216.31;6214183;23;20681;-81
2022/06/12 00:46:58;;;;;;;1.98;1.25;;;;;;;12.71;71.63;102217.22;6216667;23;20007;-81
2022/06/12 00:49:42;;;;;;;1.15;1.13;;;;;;;12.67;71.26;102211.13;6216729;23;20015;-82
2022/06/12 00:52:29;;;;;;;1.55;1.08;;;;;;;12.65;71.80;102218.09;6215979;23;20004;-81
2022/06/12 00:55:00;;;;;;;1.15;1.10;;;;;;;12.62;71.66;102218.09;6216852;23;20358;-81
2022/06/12 00:57:26;;;;;;;1.55;1.17;;;;;;;12.60;71.60;102211.16;6216202;23;20051;-82
2022/06/12 00:59:56;;;;;;;1.30;1.25;;;;;;;12.56;71.87;102212.03;6216497;23;20005;-81
2022/06/12 01:02:25;;;;;;;1.20;1.10;;;;;;;12.52;72.09;102203.34;6216384;23;20004;-82
2022/06/12 01:07:37;;;;;;;1.42;1.20;;;;;;;12.47;72.24;102205.09;6216799;23;20075;-82
2022/06/12 01:10:08;;;;;;;1.27;1.13;;;;;;;12.42;72.15;102205.09;6216876;23;20004;-82
2022/06/12 01:12:44;;;;;;;1.63;1.20;;;;;;;12.39;72.26;102202.47;6215834;23;20005;-81
2022/06/12 01:15:23;;;;;;;1.00;0.90;;;;;;;12.36;72.49;102205.13;6217111;23;20009;-82
2022/06/12 01:17:50;;;;;;;1.42;1.20;;;;;;;12.32;72.39;102208.56;6208608;23;20032;-81
2022/06/12 01:20:21;;;;;;;1.25;1.20;;;;;;;12.28;72.51;102212.03;6215885;23;20059;-81
2022/06/12 01:23:18;;;;;;;1.30;1.20;;;;;;;12.27;72.56;102212.94;6216607;23;20329;-81
2022/06/12 01:26:05;;;;;;;1.33;1.23;;;;;;;12.25;72.72;102212.06;6215553;23;20016;-82
2022/06/12 01:28:49;;;;;;;1.42;1.33;;;;;;;12.22;73.10;102209.44;6216629;23;20034;-81
2022/06/12 01:31:37;;;;;;;1.30;1.20;;;;;;;12.18;72.84;102211.19;6216490;23;20012;-81
2022/06/12 01:34:23;;;;;;;1.45;1.35;;;;;;;12.13;72.87;102206.00;6215753;23;20009;-81
2022/06/12 01:37:06;;;;;;;1.48;1.38;;;;;;;12.11;73.04;102210.31;6216066;23;20005;-81
2022/06/12 01:40:02;;;;;;;1.40;1.30;;;;;;;12.09;73.03;102206.84;6215962;23;20004;-81
2022/06/12 01:42:42;;;;;;;2.00;1.40;;;;;;;12.06;73.38;102201.63;6216743;23;20055;-82
2022/06/12 01:45:18;;;;;;;1.40;1.23;;;;;;;12.03;73.38;102199.06;6216150;23;20005;-81
2022/06/12 01:48:02;;;;;;;1.35;1.08;;;;;;;11.99;73.43;102199.91;6215586;23;20004;-81
2022/06/12 01:50:40;;;;;;;1.00;1.00;;;;;;;11.93;73.55;102192.09;6216934;23;20016;-82
2022/06/12 01:53:11;;;;;;;1.40;1.25;;;;;;;11.88;73.52;102195.53;6216340;23;20035;-81
2022/06/12 01:56:00;;;;;;;0.93;0.93;;;;;;;11.83;73.92;102194.66;6215207;23;19997;-82
2022/06/12 01:58:46;;;;;;;1.10;1.10;;;;;;;11.79;73.84;102192.94;6216725;23;20000;-82
2022/06/12 02:01:45;;;;;;;1.27;1.08;;;;;;;11.75;73.86;102198.97;6215637;23;20079;-81
2022/06/12 02:04:22;;;;;;;1.52;1.30;;;;;;;11.71;73.76;102194.63;6215859;23;20019;-82
2022/06/12 02:07:09;;;;;;;1.50;1.33;;;;;;;11.69;74.02;102194.63;6216142;23;20005;-81
2022/06/12 02:09:40;;;;;;;1.48;1.25;;;;;;;11.63;74.02;102193.75;6215746;23;20005;-81
2022/06/12 02:15:06;;;;;;;1.77;1.20;;;;;;;11.60;74.16;102197.22;6215145;23;20387;-82
2022/06/12 02:17:46;;;;;;;2.45;1.50;;;;;;;11.61;74.27;102200.69;6216446;23;20359;-82
2022/06/12 02:20:15;;;;;;;1.60;1.50;;;;;;;11.58;74.19;102202.44;6215378;23;20005;-81
2022/06/12 02:22:43;;;;;;;1.15;1.08;;;;;;;11.55;74.11;102204.13;6214719;23;20016;-82
2022/06/12 02:25:27;;;;;;;2.13;1.27;;;;;;;11.54;74.28;102205.88;6216288;23;20009;-81
2022/06/12 02:28:04;;;;;;;1.58;1.40;;;;;;;11.51;74.18;102207.59;6215933;23;20415;-82
2022/06/12 02:30:31;;;;;;;;;;;;;;;11.49;74.43;102201.53;6215574;23;20334;-81
2022/06/12 02:33:08;;;;;;;1.60;1.50;;;;;;;11.46;74.48;102197.19;6216068;23;19958;-81
2022/06/12 02:35:54;;;;;;;1.20;1.20;;;;;;;11.43;74.45;102202.38;6215833;23;20007;-82
2022/06/12 02:38:40;;;;;;;2.90;1.52;;;;;;;11.40;74.86;102195.44;6216021;23;20083;-82
2022/06/12 02:41:17;;;;;;;1.63;1.45;;;;;;;11.36;74.87;102191.09;6216163;23;20024;-82
2022/06/12 02:43:48;;;;;;;1.60;1.50;;;;;;;11.32;74.57;102191.94;6214217;23;20422;-81
2022/06/12 02:46:33;;;;;;;2.10;1.40;;;;;;;11.31;75.05;102192.81;6215664;23;20533;-82
2022/06/12 02:48:59;;;;;;;1.90;1.70;;;;;;;11.31;74.94;102187.63;6215219;23;20048;-82
2022/06/12 02:51:40;;;;;;;3.20;1.60;;;;;;;11.31;74.95;102184.16;6215203;23;20009;-82
2022/06/12 02:54:42;;;;;;;1.67;1.58;;;;;;;11.28;74.87;102188.47;6216049;23;20302;-81
2022/06/12 02:57:19;;;;;;;2.38;1.48;;;;;;;11.26;75.10;102181.53;6215039;23;20004;-82
2022/06/12 03:00:11;;;;;;;2.08;1.52;;;;;;;11.25;74.84;102185.00;6215761;23;20355;-81
2022/06/12 03:02:47;;;;;;;1.63;1.40;;;;;;;11.21;75.26;102172.84;6215142;23;20016;-82
2022/06/12 03:05:26;;;;;;;2.03;1.50;;;;;;;11.21;75.17;102183.22;6214382;23;20455;-82
2022/06/12 03:07:59;;;;;;;1.80;1.58;;;;;;;11.19;75.29;102185.84;6215317;23;20011;-84
2022/06/12 03:10:31;;;;;;;1.95;1.70;;;;;;;11.18;75.09;102189.28;6215917;23;20330;-86
2022/06/12 03:12:56;;;;;;;3.38;1.60;;;;;;;11.16;75.39;102185.81;6214798;23;20008;-86
2022/06/12 03:15:53;;;;;;;1.40;1.30;;;;;;;11.12;76.07;102181.50;6215379;23;20015;-85
2022/06/12 03:18:34;;;;;;;2.92;1.65;;;;;;;11.10;75.84;102191.84;6213332;23;20059;-79
2022/06/12 03:21:23;;;;;;;2.33;1.58;;;;;;;11.10;75.87;102191.84;6212593;23;20072;-79
2022/06/12 03:24:09;;;;;;;1.50;1.40;;;;;;;11.11;75.92;102190.16;6215140;23;20012;-79
2022/06/12 03:26:49;;;;;;;1.55;1.45;;;;;;;11.09;77.07;102194.47;6214601;23;20068;-79
2022/06/12 03:29:23;;;;;;;1.40;1.30;;;;;;;11.10;76.08;102194.47;6215854;23;20005;-80
2022/06/12 03:32:21;;;;;;;1.77;1.52;;;;;;;11.13;76.22;102191.88;6214927;23;20009;-79
2022/06/12 03:34:58;;;;;;;1.83;1.52;;;;;;;11.13;75.96;102191.03;6215162;23;20012;-79
2022/06/12 03:37:49;;;;;;;1.98;1.60;;;;;;;11.14;77.41;102187.56;6215289;23;20445;-81
2022/06/12 03:40:32;;;;;;;1.40;1.30;;;;;;;11.13;76.77;102185.81;6214354;23;20410;-82
2022/06/12 03:43:08;;;;;;;1.77;1.48;;;;;;;11.13;76.70;102194.47;6214849;23;20044;-82
2022/06/12 03:46:00;;;;;;;1.30;1.20;;;;;;;11.18;76.41;102193.63;6214941;23;20444;-82
2022/06/12 03:48:38;;;;;;;1.88;1.05;;;;;;;11.17;76.39;102195.34;6214609;23;20004;-82
2022/06/12 03:51:14;;;;;;;2.30;1.23;;;;;;;11.19;77.18;102193.63;6215015;23;20000;-82
2022/06/12 03:54:20;;;;;;;1.30;1.15;;;;;;;11.23;77.07;102191.91;6214211;23;20126;-82
2022/06/12 03:59:48;;;;;;;1.42;1.10;;;;;;;11.24;76.83;102193.66;6215147;23;20338;-82
2022/06/12 04:02:18;;;;;;;1.85;1.33;;;;;;;11.26;79.61;102195.38;6214586;23;20032;-82
2022/06/12 04:04:46;;;;;;;0.98;0.98;;;;;;;11.28;78.33;102195.41;6214512;23;20020;-82
2022/06/12 04:07:14;;;;;;;1.00;1.00;;;;;;;11.29;78.21;102199.75;6214422;23;20329;-82
2022/06/12 04:09:45;;;;;;;1.20;1.20;;;;;;;11.32;78.07;102201.47;6214589;23;20370;-82
2022/06/12 04:12:23;;;;;;;1.02;1.02;;;;;;;11.36;78.29;102205.84;6215063;23;20008;-82
2022/06/12 04:15:07;;;;;;;3.22;1.60;;;;;;;11.39;78.91;102198.03;6213560;23;20008;-83
2022/06/12 04:17:33;;;;;;;2.22;1.42;;;;;;;11.41;79.16;102196.31;6215033;23;20088;-82
2022/06/12 04:19:59;;;;;;;1.63;1.52;;;;;;;11.44;79.85;102197.16;6215667;23;20390;-82
2022/06/12 04:22:37;;;;;;;2.53;1.80;;;;;;;11.45;79.19;102198.06;6216525;23;20005;-82
2022/06/12 04:25:24;;;;;;;1.70;1.60;;;;;;;11.49;80.20;102196.34;6217480;23;20007;-82
2022/06/12 04:27:50;;;;;;;2.17;1.48;;;;;;;11.48;78.77;102198.06;6217006;23;20000;-82
2022/06/12 04:30:25;;;;;;;1.77;1.50;;;;;;;11.54;78.49;102211.06;6216560;23;20054;-82
2022/06/12 04:33:16;;;;;;;1.65;1.30;;;;;;;11.58;79.59;102207.63;6217128;23;20077;-82
2022/06/12 04:35:47;;;;;;;2.45;1.52;;;;;;;11.66;78.51;102206.78;6215575;23;20433;-82
2022/06/12 04:38:13;;;;;;;1.00;0.98;;;;;;;11.70;77.79;102205.94;6217858;23;20011;-82
2022/06/12 04:40:38;;;;;;;2.23;1.30;;;;;;;11.73;78.37;102211.09;6217190;23;20380;-82
2022/06/12 04:43:03;;;;;;;2.03;1.50;;;;;;;11.76;79.36;102215.47;6215770;23;20008;-82
2022/06/12 04:45:29;;;;;;;1.63;1.53;;;;;;;11.79;80.03;102216.34;6216522;23;20074;-82
2022/06/12 04:47:54;;;;;;;2.10;1.60;;;;;;;11.83;78.86;102217.22;6217082;23;20031;-82
2022/06/12 04:50:19;;;;;;;1.60;1.37;;;;;;;11.86;78.83;102215.47;6216270;23;20419;-82
2022/06/12 04:52:45;;;;;;;1.27;1.17;;;;;;;11.94;78.33;102206.78;6216662;23;20023;-82
2022/06/12 04:55:10;;;;;;;1.20;1.13;;;;;;;12.00;78.58;102222.47;6216664;23;20112;-82
2022/06/12 04:57:35;;;;;;;1.17;1.10;;;;;;;12.04;78.07;102209.44;6216221;23;20317;-82
2022/06/12 05:00:01;;;;;;;2.67;1.40;;;;;;;12.09;78.16;102212.06;6216413;23;20008;-82
2022/06/12 05:02:26;;;;;;;3.47;1.67;;;;;;;12.16;77.84;102212.91;6216990;23;20008;-82
2022/06/12 05:04:52;;;;;;;2.83;1.90;;;;;;;12.20;78.65;102205.09;6215104;23;20016;-82
2022/06/12 05:07:17;;;;;;;3.27;1.80;;;;;;;12.23;78.98;102208.59;6216742;23;20008;-82
2022/06/12 05:09:43;;;;;;;1.83;1.67;;;;;;;12.27;80.57;102199.91;6216455;23;19996;-81
2022/06/12 05:12:12;;;;;;;3.22;1.90;;;;;;;12.33;78.87;102202.50;6216052;23;20016;-82
2022/06/12 05:14:38;;;;;;;1.88;1.70;;;;;;;12.38;78.27;102206.00;6216556;23;20001;-82
2022/06/12 05:17:09;;;;;;;2.20;1.50;;;;;;;12.44;78.29;102205.13;6217016;23;20027;-82
2022/06/12 05:19:37;;;;;;;1.67;1.45;;;;;;;12.51;77.79;102207.69;6215855;23;20426;-82
2022/06/12 05:22:03;;;;;;;1.42;1.33;;;;;;;12.56;77.90;102202.47;6216765;23;20004;-82
2022/06/12 05:24:32;;;;;;;1.33;1.23;;;;;;;12.66;78.04;102213.75;6216680;23;20055;-82
2022/06/12 05:26:59;;;;;;;1.42;1.15;;;;;;;12.72;78.13;102208.50;6216658;23;20009;-82
2022/06/12 05:29:29;;;;;;;;;;;;;;;12.78;77.62;102205.91;6217104;23;20039;-82
2022/06/12 05:31:56;;;;;;;1.13;0.88;;;;;;;12.85;77.74;102206.75;6214610;23;20022;-82
2022/06/12 05:34:22;;;;;;;1.20;1.20;;;;;;;12.93;78.87;102201.53;6216911;23;20005;-82
2022/06/12 05:36:47;;;;;;;2.43;1.87;;;;;;;12.99;78.22;102217.13;6216686;23;20329;-83
2022/06/12 05:39:13;;;;;;;2.80;1.60;;;;;;;13.04;77.55;102204.06;6215700;23;20325;-82
2022/06/12 05:41:38;;;;;;;1.30;1.20;;;;;;;13.09;77.95;102205.78;6215714;23;20059;-82
2022/06/12 05:44:04;;;;;;;2.20;1.43;;;;;;;13.16;78.03;102209.25;6216185;23;20043;-82
2022/06/12 05:46:30;;;;;;;3.90;2.20;;;;;;;13.22;77.91;102214.44;6215694;23;20000;-82
2022/06/12 05:48:55;;;;;;;4.57;2.20;;;;;;;13.30;77.83;102219.59;6215849;23;20594;-82
2022/06/12 05:51:21;;;;;;;5.67;2.50;;;;;;;13.36;77.16;102216.97;6216726;23;20005;-83
2022/06/12 05:53:46;;;;;;;2.93;1.97;;;;;;;13.44;77.68;102217.84;6215101;23;20425;-82
2022/06/12 05:56:17;;;;;;;2.90;1.90;;;;;;;13.52;78.31;102220.41;6216605;23;20004;-82
2022/06/12 05:58:43;;;;;;;2.88;1.95;;;;;;;13.62;78.51;102220.34;6216119;23;20008;-82
2022/06/12 06:01:12;;;;;;;2.37;1.83;;;;;;;13.72;78.16;102219.41;6215655;23;20013;-82
2022/06/12 06:03:38;;;;;;;3.13;1.75;;;;;;;14.10;77.95;102220.00;6215584;23;20453;-82
2022/06/12 06:06:05;;;;;;;2.87;1.53;;;;;;;14.83;77.83;102220.22;6216359;23;20040;-82
2022/06/12 06:08:31;;;;;;;2.00;1.60;;;;;;;16.59;76.94;102213.31;6215247;23;20712;-84
2022/06/12 06:10:56;;;;;;;2.23;1.50;;;;;;;18.57;73.92;102219.41;6216082;23;20499;-83
2022/06/12 06:13:21;;;;;;;3.17;1.80;;;;;;;19.95;65.50;102225.00;6215976;23;20071;-83
2022/06/12 06:15:49;;;;;;;2.80;1.70;;;;;;;20.21;65.24;102225.00;6214661;23;20418;-83
2022/06/12 06:18:14;;;;;;;6.53;2.55;;;;;;;19.97;64.21;102228.47;6216152;23;20001;-83
2022/06/12 06:20:40;;;;;;;7.43;2.70;;;;;;;19.63;62.66;102232.16;6216086;23;20005;-84
2022/06/12 06:23:06;;;;;;;4.97;2.37;;;;;;;19.56;64.75;102237.63;6215194;23;20004;-83
2022/06/12 06:25:33;;;;;;;4.65;2.30;;;;;;;19.56;63.52;102228.84;6216397;23;20005;-83
2022/06/12 06:27:59;;;;;;;7.63;2.38;;;;;;;19.51;63.48;102228.97;6215193;23;20096;-83
2022/06/12 06:30:25;;;;;;;5.85;2.33;;;;;;;19.56;63.83;102231.47;6216375;23;20005;-83
2022/06/12 06:32:51;;;;;;;5.10;2.40;;;;;;;19.58;63.94;102232.28;6215459;23;20001;-83
2022/06/12 06:35:17;;;;;;;5.80;2.37;;;;;;;19.53;63.62;102227.16;6215420;23;20012;-83
2022/06/12 06:37:43;;;;;;;;;;;;;;;19.59;63.23;102234.00;6216411;23;20001;-83
2022/06/12 06:40:10;;;;;;;5.00;2.50;;;;;;;19.67;63.34;102239.91;6216158;23;19957;-83
2022/06/12 06:42:36;;;;;;;3.28;2.03;;;;;;;19.82;63.67;102237.69;6213956;23;20065;-83
2022/06/12 06:47:45;;;;;;;5.43;2.25;;;;;;;20.00;63.51;102241.53;6215526;23;20131;-83
2022/06/12 06:50:14;;;;;;;7.67;2.40;;;;;;;19.90;63.72;102244.47;6214633;23;20414;-83
2022/06/12 06:52:39;;;;;;;4.03;2.08;;;;;;;19.80;64.43;102240.38;6215829;23;20028;-83
2022/06/12 06:55:06;;;;;;;3.50;1.90;;;;;;;19.84;64.60;102249.91;6216116;23;20004;-83
2022/06/12 06:57:34;;;;;;;;;;;;;;;20.01;64.17;102248.53;6215086;23;20024;-83
2022/06/12 06:59:59;;;;;;;4.28;1.80;;;;;;;20.15;63.58;102245.44;6215523;23;19912;-84
2022/06/12 07:02:24;;;;;;;3.83;1.90;;;;;;;20.20;63.58;102244.38;6215815;23;20047;-83
2022/06/12 07:04:50;;;;;;;3.10;1.83;;;;;;;20.26;63.81;102240.66;6213831;23;20016;-82
2022/06/12 07:07:15;;;;;;;2.93;1.70;;;;;;;20.41;64.08;102241.91;6215946;23;20020;-83
2022/06/12 07:09:40;;;;;;;5.10;1.80;;;;;;;20.62;60.24;102245.56;6215491;23;20390;-83
2022/06/12 07:12:07;;;;;;;3.80;1.67;;;;;;;20.71;62.63;102241.75;6215263;23;20016;-84
2022/06/12 07:14:33;;;;;;;5.82;2.28;;;;;;;20.74;60.57;102236.38;6215333;23;20008;-84
2022/06/12 07:16:59;;;;;;;4.83;1.93;;;;;;;20.70;61.20;102247.06;6215485;23;20004;-84
2022/06/12 07:19:26;;;;;;;6.95;2.75;;;;;;;20.73;60.16;102246.97;6215221;23;20005;-84
2022/06/12 07:21:52;;;;;;;6.53;2.50;;;;;;;20.75;61.59;102245.19;6215027;23;20005;-83
2022/06/12 07:24:20;;;;;;;4.43;2.10;;;;;;;20.74;60.27;102249.56;6214791;23;20012;-81
2022/06/12 07:26:47;;;;;;;2.88;1.75;;;;;;;20.64;62.49;102249.03;6214134;23;20023;-76
2022/06/12 07:29:15;;;;;;;4.25;2.05;;;;;;;20.68;61.70;102244.50;6215365;23;20425;-81
2022/06/12 07:31:41;;;;;;;4.50;1.88;;;;;;;20.74;62.01;102246.94;6214352;23;20337;-81
2022/06/12 07:34:07;;;;;;;3.55;1.70;;;;;;;20.74;62.96;102244.28;6215633;23;20004;-81
2022/06/12 07:36:35;;;;;;;4.32;1.70;;;;;;;20.69;63.19;102246.22;6215963;23;20005;-76
2022/06/12 07:39:05;;;;;;;2.95;1.65;;;;;;;20.50;61.23;102251.28;6214149;23;20005;-76
2022/06/12 07:41:30;;;;;;;2.55;1.58;;;;;;;20.43;63.16;102255.91;6215178;23;20032;-76
2022/06/12 07:43:55;;;;;;;3.20;1.47;;;;;;;20.50;62.20;102256.56;6215207;23;20351;-79
2022/06/12 07:46:21;;;;;;;2.23;1.50;;;;;;;20.48;62.63;102256.63;6214988;23;20058;-80
2022/06/12 07:48:47;;;;;;;2.97;1.52;;;;;;;20.49;62.34;102253.03;6215316;23;20078;-80
2022/06/12 07:51:17;;;;;;;2.53;1.35;;;;;;;20.48;62.36;102259.25;6215444;23;20330;-80
2022/06/12 07:53:44;;;;;;;3.33;1.67;;;;;;;20.42;61.87;102248.91;6214540;23;20026;-79
2022/06/12 07:56:11;;;;;;;4.20;2.13;;;;;;;20.31;61.52;102258.97;6216097;23;20011;-79
2022/06/12 07:58:37;;;;;;;6.63;2.22;;;;;;;20.20;62.03;102249.63;6215498;23;20066;-79
2022/06/12 08:01:06;;;;;;;2.08;1.65;;;;;;;20.19;62.91;102253.19;6214530;23;20391;-79
2022/06/12 08:03:32;;;;;;;4.07;1.92;;;;;;;20.15;62.27;102255.97;6215131;23;20009;-79
2022/06/12 08:06:01;;;;;;;5.80;2.50;;;;;;;20.09;61.23;102259.69;6215014;23;20333;-79
2022/06/12 08:08:30;;;;;;;4.28;2.00;;;;;;;20.07;62.95;102256.22;6214058;23;20402;-81
2022/06/12 08:10:55;;;;;;;4.75;2.00;;;;;;;20.12;62.45;102258.72;6215052;23;20422;-84
2022/06/12 08:13:23;;;;;;;2.73;1.50;;;;;;;20.22;63.03;102252.22;6214308;23;20008;-84
2022/06/12 08:15:50;;;;;;;2.15;1.45;;;;;;;20.29;62.55;102253.75;6214676;23;20282;-84
2022/06/12 08:18:20;;;;;;;3.17;1.80;;;;;;;20.36;61.77;102249.97;6215307;23;20011;-83
2022/06/12 08:20:53;;;;;;;1.60;1.10;;;;;;;20.36;62.73;102244.69;6213312;23;20436;-83
2022/06/12 08:23:26;;;;;;;1.30;1.20;;;;;;;20.39;62.57;102246.38;6215707;23;20154;-83
2022/06/12 08:25:55;;;;;;;4.15;1.73;;;;;;;20.27;61.89;102244.16;6215040;23;20005;-83
2022/06/12 08:28:24;;;;;;;3.72;1.80;;;;;;;20.12;62.05;102251.69;6214735;23;20054;-83
2022/06/12 08:30:50;;;;;;;6.80;2.40;;;;;;;19.97;61.05;102253.06;6215171;23;20013;-83
2022/06/12 08:33:15;;;;;;;3.50;2.00;;;;;;;20.04;62.64;102249.28;6215881;23;20012;-84
2022/06/12 08:35:41;;;;;;;2.30;1.57;;;;;;;20.23;62.63;102253.94;6213630;23;20405;-84
2022/06/12 08:38:06;;;;;;;3.23;1.50;;;;;;;20.47;62.78;102254.00;6215498;23;20087;-84
2022/06/12 08:40:40;;;;;;;3.53;2.07;;;;;;;20.62;62.25;102255.25;6215147;23;20004;-83
2022/06/12 08:43:22;;;;;;;5.28;2.20;;;;;;;20.68;62.40;102245.34;6214884;23;20425;-84
2022/06/12 08:45:50;;;;;;;3.88;1.88;;;;;;;20.77;62.02;102241.56;6214815;23;20008;-83
2022/06/12 08:48:28;;;;;;;4.22;1.90;;;;;;;20.88;61.50;102240.31;6215320;23;20318;-83
2022/06/12 08:51:03;;;;;;;3.63;1.73;;;;;;;20.95;60.69;102241.78;6214238;23;20007;-84
2022/06/12 08:53:35;;;;;;;2.97;1.60;;;;;;;21.00;60.65;102246.94;6214751;23;20477;-84
2022/06/12 08:56:05;;;;;;;1.83;1.45;;;;;;;21.02;60.70;102238.03;6214059;23;20012;-84
2022/06/12 08:58:39;;;;;;;1.63;1.40;;;;;;;21.06;60.78;102236.13;6214882;23;20080;-84
2022/06/12 09:01:04;;;;;;;1.65;1.48;;;;;;;21.13;61.78;102232.31;6214756;23;20013;-83
2022/06/12 09:03:35;;;;;;;1.30;1.00;;;;;;;21.31;61.49;102230.75;6210561;23;20033;-84
2022/06/12 09:06:23;;;;;;;3.47;1.70;;;;;;;21.48;61.19;102235.38;6215436;23;20012;-84
2022/06/12 09:08:57;;;;;;;1.83;1.30;;;;;;;21.67;61.53;102234.72;6216457;23;20369;-84
2022/06/12 09:11:42;;;;;;;2.70;1.50;;;;;;;21.90;58.12;102233.75;6216657;23;20036;-84
2022/06/12 09:14:29;;;;;;;2.20;1.60;;;;;;;21.93;58.47;102228.34;6217067;23;20374;-85
2022/06/12 09:17:20;;;;;;;2.38;1.45;;;;;;;21.97;60.07;102227.28;6215164;23;20004;-83
2022/06/12 09:19:56;;;;;;;1.52;1.10;;;;;;;22.18;60.06;102222.03;6170354;23;20008;-84
2022/06/12 09:22:59;;;;;;;2.33;1.50;;;;;;;22.31;59.61;102231.13;6216779;23;20322;-84
2022/06/12 09:25:46;;;;;;;2.97;1.85;;;;;;;22.34;58.48;102232.81;6215964;23;20004;-82
2022/06/12 09:28:44;;;;;;;3.88;1.90;;;;;;;22.31;57.85;102225.84;6217001;23;20004;-83
2022/06/12 09:31:27;;;;;;;3.40;1.88;;;;;;;22.41;56.62;102228.13;6215708;23;20008;-83
2022/06/12 09:34:25;;;;;;;2.60;1.48;;;;;;;22.50;58.27;102228.59;6216610;23;20325;-83
2022/06/12 09:38:18;;;;;;;6.03;2.13;;;;;;;22.58;56.32;102216.81;6216610;23;20001;-83
2022/06/12 09:40:09;;;;;;;2.75;1.83;;;;;;;22.58;57.76;102217.69;6214584;23;20009;-83
2022/06/12 09:42:55;;;;;;;2.97;1.80;;;;;;;22.72;57.23;102218.84;6216644;23;20037;-83
2022/06/12 09:45:32;;;;;;;3.38;1.83;;;;;;;22.71;57.55;102227.72;6215994;23;20009;-84
2022/06/12 09:48:25;;;;;;;2.67;1.70;;;;;;;22.66;56.54;102217.34;6216305;23;20012;-84
2022/06/12 09:51:08;;;;;;;2.15;1.42;;;;;;;22.67;56.44;102227.84;6215523;23;20011;-84
2022/06/12 09:54:11;;;;;;;1.33;1.20;;;;;;;22.83;57.38;102214.78;6216186;23;20419;-84
2022/06/12 09:56:54;;;;;;;2.65;1.52;;;;;;;23.02;55.75;102223.66;6216656;23;20005;-83
2022/06/12 09:59:34;;;;;;;1.90;1.70;;;;;;;23.22;54.74;102223.63;6215656;23;20000;-84
2022/06/12 10:02:08;;;;;;;2.20;1.52;;;;;;;23.34;53.79;102221.31;6215996;23;20417;-83
2022/06/12 10:04:51;;;;;;;3.67;1.67;;;;;;;23.32;54.13;102220.53;6216888;23;20015;-84
2022/06/12 10:07:28;;;;;;;2.20;1.60;;;;;;;23.32;54.95;102216.13;6213607;23;20004;-82
2022/06/12 10:10:00;;;;;;;4.40;2.10;;;;;;;23.26;52.20;102211.09;6216585;23;20005;-89
2022/06/12 10:12:39;;;;;;;2.88;1.70;;;;;;;23.23;52.87;102212.09;6217341;23;20322;-80
2022/06/12 10:15:24;;;;;;;4.88;2.10;;;;;;;23.26;53.76;102208.44;6215504;23;20055;-79
2022/06/12 10:18:22;;;;;;;3.00;1.88;;;;;;;23.37;52.98;102208.78;6215769;23;20004;-80
2022/06/12 10:20:54;;;;;;;2.35;1.40;;;;;;;23.43;52.18;102207.63;6213803;23;20010;-84
2022/06/12 10:23:19;;;;;;;1.85;1.50;;;;;;;23.49;50.52;102202.06;6216399;23;20013;-83
2022/06/12 10:25:57;;;;;;;3.97;1.80;;;;;;;23.52;48.07;102196.63;6215293;23;20010;-83
2022/06/12 10:28:26;;;;;;;3.38;1.63;;;;;;;23.49;46.08;102202.06;6215522;23;20009;-84
2022/06/12 10:31:18;;;;;;;6.57;2.13;;;;;;;23.65;49.15;102210.13;6215544;23;20016;-83
2022/06/12 10:33:48;;;;;;;3.97;1.90;;;;;;;23.81;50.38;102199.59;6210687;23;20005;-83
2022/06/12 10:36:33;;;;;;;4.40;1.80;;;;;;;24.04;47.64;102194.97;6215424;23;20010;-83
2022/06/12 10:39:05;;;;;;;3.70;1.80;;;;;;;24.19;50.19;102188.88;6215303;23;20562;-84
2022/06/12 10:41:31;;;;;;;1.65;1.40;;;;;;;24.36;50.36;102193.31;6214813;23;20027;-83
2022/06/12 10:44:00;;;;;;;1.50;1.25;;;;;;;24.57;49.06;102186.91;6217157;23;20013;-86
2022/06/12 10:46:30;;;;;;;1.83;1.00;;;;;;;24.59;50.98;102195.66;6216411;23;20004;-84
2022/06/12 10:49:06;;;;;;;1.38;1.23;;;;;;;24.35;48.22;102199.56;6215786;23;20005;-82
2022/06/12 10:51:38;;;;;;;3.53;1.50;;;;;;;24.11;47.84;102201.66;6215509;23;20302;-81
2022/06/12 10:54:16;;;;;;;4.30;1.92;;;;;;;23.77;46.63;102195.38;6216044;23;20349;-79
2022/06/12 10:57:37;;;;;;;2.10;1.60;;;;;;;23.45;45.69;102195.19;6215575;23;20005;-82
2022/06/12 11:00:15;;;;;;;4.28;1.90;;;;;;;23.27;48.59;102200.44;6190363;23;20039;-83
2022/06/12 11:03:26;;;;;;;2.75;1.70;;;;;;;23.16;49.57;102194.75;6214898;23;20017;-83
2022/06/12 11:06:13;;;;;;;2.35;1.40;;;;;;;23.37;51.06;102187.59;6216375;23;20005;-83
2022/06/12 11:09:06;;;;;;;2.42;1.60;;;;;;;23.51;49.15;102186.06;6216735;23;20056;-83
2022/06/12 11:11:47;;;;;;;1.90;1.40;;;;;;;23.58;50.03;102184.84;6188414;23;20019;-83
2022/06/12 11:15:09;;;;;;;;;;;;;;;;;;;;;
2022/06/12 11:17:56;;;;;;;1.10;0.95;;;;;;;23.59;49.83;102179.47;6113482;23;20083;-83
2022/06/12 11:21:07;;;;;;;3.35;1.50;;;;;;;23.82;50.59;102176.59;6173410;23;20013;-83
2022/06/12 11:24:10;;;;;;;2.03;1.38;;;;;;;23.79;50.46;102193.50;6185151;23;20176;-83
2022/06/12 11:26:56;;;;;;;1.40;1.30;;;;;;;23.93;49.98;102181.38;6217745;23;20016;-82
2022/06/12 11:29:27;;;;;;;2.17;1.48;;;;;;;24.20;49.77;102181.78;6215644;23;20004;-83
2022/06/12 11:32:30;;;;;;;2.55;1.30;;;;;;;24.47;48.60;102178.63;6216028;23;20034;-84
2022/06/12 11:35:22;;;;;;;3.97;2.03;;;;;;;24.58;47.37;102175.38;6215459;23;20005;-83
2022/06/12 11:38:21;;;;;;;2.67;1.50;;;;;;;24.63;46.52;102165.38;6168746;23;20005;-83
2022/06/12 11:41:17;;;;;;;4.13;1.80;;;;;;;24.61;47.44;102175.22;6215142;23;20004;-84
2022/06/12 11:43:57;;;;;;;2.50;1.60;;;;;;;24.56;47.83;102166.63;6188423;23;20013;-83
2022/06/12 11:46:41;;;;;;;3.35;1.80;;;;;;;24.56;46.56;102163.97;6214828;23;20319;-83
2022/06/12 11:49:35;;;;;;;5.60;2.00;;;;;;;24.52;44.80;102161.50;6207771;23;20445;-83
2022/06/12 11:52:45;;;;;;;2.72;1.55;;;;;;;24.33;43.92;102160.75;6215950;23;20008;-83
2022/06/12 11:55:38;;;;;;;1.45;1.35;;;;;;;24.29;47.67;102151.25;6215504;23;20312;-83
2022/06/12 11:58:31;;;;;;;3.00;1.90;;;;;;;24.37;46.81;102155.19;6210918;23;20043;-84
2022/06/12 12:01:35;;;;;;;4.25;1.67;;;;;;;24.46;44.48;102151.22;6207683;23;20138;-84
2022/06/12 12:04:45;;;;;;;3.67;1.88;;;;;;;24.52;44.49;102147.38;6214461;23;20017;-83
2022/06/12 12:07:56;;;;;;;2.30;1.52;;;;;;;24.60;46.16;102158.41;6188269;23;20385;-84
2022/06/12 12:10:43;;;;;;;2.33;1.65;;;;;;;24.70;46.37;102156.16;6179643;23;20008;-83
2022/06/12 12:13:21;;;;;;;3.05;1.60;;;;;;;24.66;43.13;102144.81;6214665;23;20012;-84
2022/06/12 12:16:09;;;;;;;4.05;1.80;;;;;;;24.70;43.33;102142.88;6190373;23;20044;-83